createdAt,value
2022-12-01T00:00:10.799Z,114.60
2022-12-01T00:01:10.754Z,112.80
2022-12-01T00:02:10.842Z,115.50
2022-12-01T00:03:10.868Z,115.90
2022-12-01T00:04:10.742Z,110.90
2022-12-01T00:05:10.766Z,111.60
2022-12-01T00:06:10.730Z,120.30
2022-12-01T00:07:10.753Z,113.90
2022-12-01T00:08:10.727Z,114.10
2022-12-01T00:09:13.977Z,119.60
2022-12-01T00:10:10.731Z,112.80
2022-12-01T00:11:10.702Z,115.10
2022-12-01T00:12:10.717Z,117.30
2022-12-01T00:13:10.699Z,119.70
2022-12-01T00:14:10.687Z,117.90
2022-12-01T00:15:10.716Z,120.30
2022-12-01T00:16:10.758Z,120.20
2022-12-01T00:17:10.712Z,117.30
2022-12-01T00:18:10.667Z,119.00
2022-12-01T00:19:10.659Z,112.10
2022-12-01T00:20:10.680Z,116.00
2022-12-01T00:21:10.670Z,125.90
2022-12-01T00:22:10.677Z,114.00
2022-12-01T00:23:10.639Z,117.50
2022-12-01T00:24:10.644Z,123.00
2022-12-01T00:25:10.664Z,123.50
2022-12-01T00:26:10.620Z,126.30
2022-12-01T00:27:10.624Z,124.00
2022-12-01T00:28:10.619Z,131.00
2022-12-01T00:29:10.645Z,122.00
2022-12-01T00:30:10.630Z,127.20
2022-12-01T00:31:10.617Z,130.90
2022-12-01T00:32:10.667Z,127.60
2022-12-01T00:33:10.612Z,134.90
2022-12-01T00:34:11.606Z,141.10
2022-12-01T00:35:11.568Z,134.80
2022-12-01T00:36:10.574Z,131.40
2022-12-01T00:37:10.601Z,148.10
2022-12-01T00:38:10.566Z,146.10
2022-12-01T00:39:10.546Z,147.20
2022-12-01T00:40:10.551Z,144.30
2022-12-01T00:41:10.535Z,149.90
2022-12-01T00:42:13.424Z,144.60
2022-12-01T00:43:11.557Z,138.30
2022-12-01T00:44:10.584Z,141.00
2022-12-01T00:45:10.522Z,145.30
2022-12-01T00:46:10.561Z,152.90
2022-12-01T00:47:10.507Z,148.20
2022-12-01T00:48:10.495Z,151.10
2022-12-01T00:49:10.547Z,150.80
2022-12-01T00:50:10.494Z,143.70
2022-12-01T00:51:10.489Z,151.20
2022-12-01T00:52:10.476Z,147.90
2022-12-01T00:53:10.540Z,150.00
2022-12-01T00:54:10.471Z,160.90
2022-12-01T00:55:10.461Z,166.20
2022-12-01T00:56:10.506Z,151.90
2022-12-01T00:57:10.459Z,153.70
2022-12-01T00:58:10.445Z,164.40
2022-12-01T00:59:10.441Z,157.80
2022-12-01T01:00:10.463Z,161.20
2022-12-01T01:01:10.475Z,153.80
2022-12-01T01:02:10.496Z,154.80
2022-12-01T01:03:10.451Z,151.70
2022-12-01T01:04:10.407Z,155.10
2022-12-01T01:05:10.449Z,149.70
2022-12-01T01:06:10.430Z,156.00
2022-12-01T01:07:10.408Z,148.60
2022-12-01T01:08:10.489Z,156.90
2022-12-01T01:09:10.379Z,159.80
2022-12-01T01:10:10.417Z,150.10
2022-12-01T01:11:10.378Z,149.80
2022-12-01T01:12:10.410Z,161.70
2022-12-01T01:13:10.360Z,147.70
2022-12-01T01:14:10.352Z,148.10
2022-12-01T01:15:10.381Z,150.00
2022-12-01T01:16:10.413Z,146.70
2022-12-01T01:17:10.475Z,146.60
2022-12-01T01:18:10.336Z,153.90
2022-12-01T01:19:10.328Z,150.20
2022-12-01T01:20:10.328Z,154.70
2022-12-01T01:21:10.359Z,158.90
2022-12-01T01:22:10.344Z,148.90
2022-12-01T01:23:10.313Z,152.20
2022-12-01T01:24:11.329Z,153.10
2022-12-01T01:25:10.300Z,148.60
2022-12-01T01:26:10.277Z,155.10
2022-12-01T01:27:10.299Z,155.80
2022-12-01T01:28:10.273Z,160.90
2022-12-01T01:29:10.259Z,155.80
2022-12-01T01:30:10.257Z,151.50
2022-12-01T01:31:10.258Z,153.40
2022-12-01T01:32:10.271Z,161.40
2022-12-01T01:33:10.280Z,153.80
2022-12-01T01:34:10.241Z,155.90
2022-12-01T01:35:10.229Z,163.20
2022-12-01T01:36:10.223Z,158.70
2022-12-01T01:37:10.229Z,158.90
2022-12-01T01:38:10.205Z,157.70
2022-12-01T01:39:10.211Z,161.10
2022-12-01T01:40:10.193Z,151.30
2022-12-01T01:41:10.174Z,158.80
2022-12-01T01:42:10.164Z,159.90
2022-12-01T01:43:10.207Z,165.30
2022-12-01T01:44:10.184Z,153.60
2022-12-01T01:45:10.164Z,156.60
2022-12-01T01:46:10.235Z,155.30
2022-12-01T01:47:10.159Z,156.90
2022-12-01T01:48:10.158Z,155.70
2022-12-01T01:49:10.164Z,159.30
2022-12-01T01:50:10.144Z,161.50
2022-12-01T01:51:10.146Z,158.00
2022-12-01T01:52:10.139Z,166.90
2022-12-01T01:53:10.138Z,163.40
2022-12-01T01:54:10.176Z,171.40
2022-12-01T01:55:10.215Z,167.40
2022-12-01T01:56:10.082Z,166.50
2022-12-01T01:57:10.073Z,165.10
2022-12-01T01:58:10.085Z,162.40
2022-12-01T01:59:10.077Z,161.30
2022-12-01T02:00:10.102Z,175.50
2022-12-01T02:01:10.133Z,163.30
2022-12-01T02:02:10.126Z,161.20
2022-12-01T02:03:10.036Z,169.10
2022-12-01T02:04:10.059Z,169.30
2022-12-01T02:05:10.036Z,162.60
2022-12-01T02:06:10.069Z,168.20
2022-12-01T02:07:10.031Z,170.40
2022-12-01T02:08:10.110Z,162.00
2022-12-01T02:09:10.020Z,168.50
2022-12-01T02:10:10.014Z,172.90
2022-12-01T02:11:10.021Z,166.60
2022-12-01T02:12:10.009Z,166.30
2022-12-01T02:13:10.001Z,172.30
2022-12-01T02:14:09.981Z,162.60
2022-12-01T02:15:10.009Z,167.00
2022-12-01T02:16:09.975Z,162.10
2022-12-01T02:17:10.006Z,169.00
2022-12-01T02:18:09.966Z,181.00
2022-12-01T02:19:09.957Z,176.40
2022-12-01T02:20:10.978Z,170.90
2022-12-01T02:21:09.977Z,163.70
2022-12-01T02:22:09.942Z,169.20
2022-12-01T02:23:09.936Z,167.90
2022-12-01T02:24:09.938Z,168.30
2022-12-01T02:25:09.955Z,172.40
2022-12-01T02:26:09.956Z,174.50
2022-12-01T02:27:09.918Z,173.00
2022-12-01T02:28:09.931Z,167.40
2022-12-01T02:29:09.915Z,168.50
2022-12-01T02:30:09.894Z,173.90
2022-12-01T02:31:14.752Z,173.20
2022-12-01T02:32:10.893Z,173.20
2022-12-01T02:33:09.896Z,163.30
2022-12-01T02:34:09.894Z,174.80
2022-12-01T02:35:09.869Z,169.00
2022-12-01T02:36:09.885Z,173.60
2022-12-01T02:37:09.876Z,174.40
2022-12-01T02:38:09.866Z,169.90
2022-12-01T02:39:09.869Z,169.30
2022-12-01T02:40:09.843Z,177.50
2022-12-01T02:41:09.836Z,169.60
2022-12-01T02:42:09.825Z,180.60
2022-12-01T02:43:09.850Z,175.60
2022-12-01T02:44:09.821Z,177.90
2022-12-01T02:45:09.817Z,174.60
2022-12-01T02:46:09.866Z,179.30
2022-12-01T02:47:09.808Z,177.70
2022-12-01T02:48:09.811Z,174.90
2022-12-01T02:49:09.828Z,171.90
2022-12-01T02:50:09.786Z,173.50
2022-12-01T02:51:09.790Z,169.00
2022-12-01T02:52:09.789Z,166.40
2022-12-01T02:53:09.783Z,172.80
2022-12-01T02:54:09.787Z,180.70
2022-12-01T02:55:09.781Z,167.30
2022-12-01T02:56:09.759Z,173.60
2022-12-01T02:57:09.951Z,173.30
2022-12-01T02:58:09.760Z,174.00
2022-12-01T02:59:09.790Z,172.00
2022-12-01T03:00:09.737Z,176.20
2022-12-01T03:01:09.803Z,172.40
2022-12-01T03:02:09.749Z,176.80
2022-12-01T03:03:09.714Z,181.30
2022-12-01T03:04:09.725Z,164.00
2022-12-01T03:05:09.712Z,167.40
2022-12-01T03:06:09.706Z,175.30
2022-12-01T03:07:09.692Z,171.30
2022-12-01T03:08:09.742Z,165.90
2022-12-01T03:09:09.673Z,172.00
2022-12-01T03:10:09.699Z,168.70
2022-12-01T03:11:09.658Z,166.00
2022-12-01T03:12:09.695Z,165.90
2022-12-01T03:13:09.704Z,170.90
2022-12-01T03:14:09.649Z,174.60
2022-12-01T03:15:09.675Z,171.00
2022-12-01T03:16:09.698Z,170.60
2022-12-01T03:17:09.659Z,175.70
2022-12-01T03:18:09.655Z,170.30
2022-12-01T03:19:09.625Z,174.30
2022-12-01T03:20:09.660Z,172.20
2022-12-01T03:21:09.640Z,175.50
2022-12-01T03:22:09.612Z,181.00
2022-12-01T03:23:09.614Z,175.30
2022-12-01T03:24:09.609Z,179.90
2022-12-01T03:25:09.596Z,179.30
2022-12-01T03:26:09.614Z,178.80
2022-12-01T03:27:09.589Z,176.80
2022-12-01T03:28:24.878Z,172.50
2022-12-01T03:29:11.582Z,172.00
2022-12-01T03:30:09.612Z,167.20
2022-12-01T03:31:09.602Z,170.80
2022-12-01T03:32:09.581Z,175.00
2022-12-01T03:33:09.541Z,168.00
2022-12-01T03:34:09.561Z,173.40
2022-12-01T03:35:09.544Z,172.50
2022-12-01T03:36:09.554Z,178.70
2022-12-01T03:37:09.599Z,178.40
2022-12-01T03:38:09.518Z,174.20
2022-12-01T03:39:09.748Z,166.70
2022-12-01T03:40:09.511Z,165.20
2022-12-01T03:41:09.539Z,174.20
2022-12-01T03:42:09.504Z,186.00
2022-12-01T03:43:09.492Z,177.10
2022-12-01T03:44:09.497Z,170.80
2022-12-01T03:45:09.485Z,168.40
2022-12-01T03:46:09.538Z,168.20
2022-12-01T03:47:09.470Z,168.80
2022-12-01T03:48:09.486Z,170.60
2022-12-01T03:49:09.460Z,173.40
2022-12-01T03:50:09.459Z,175.90
2022-12-01T03:51:09.451Z,177.20
2022-12-01T03:52:09.478Z,166.90
2022-12-01T03:53:09.476Z,163.80
2022-12-01T03:54:09.428Z,166.10
2022-12-01T03:55:09.413Z,178.70
2022-12-01T03:56:09.417Z,171.50
2022-12-01T03:57:09.461Z,179.50
2022-12-01T03:58:09.408Z,168.40
2022-12-01T03:59:09.399Z,172.10
2022-12-01T04:00:09.405Z,167.40
2022-12-01T04:01:09.404Z,163.20
2022-12-01T04:02:09.469Z,161.10
2022-12-01T04:03:09.500Z,165.00
2022-12-01T04:04:09.379Z,165.70
2022-12-01T04:05:09.416Z,172.80
2022-12-01T04:06:09.392Z,160.80
2022-12-01T04:07:09.354Z,161.70
2022-12-01T04:08:09.558Z,170.20
2022-12-01T04:09:09.346Z,164.60
2022-12-01T04:10:09.392Z,160.50
2022-12-01T04:11:09.370Z,157.20
2022-12-01T04:12:09.327Z,155.90
2022-12-01T04:13:09.308Z,165.70
2022-12-01T04:14:10.324Z,150.70
2022-12-01T04:15:09.381Z,157.50
2022-12-01T04:16:09.369Z,154.80
2022-12-01T04:17:09.486Z,162.70
2022-12-01T04:18:09.306Z,147.30
2022-12-01T04:19:09.282Z,151.90
2022-12-01T04:20:09.308Z,153.60
2022-12-01T04:21:09.290Z,150.10
2022-12-01T04:22:09.306Z,144.40
2022-12-01T04:23:09.282Z,140.20
2022-12-01T04:24:09.279Z,140.00
2022-12-01T04:25:09.264Z,139.50
2022-12-01T04:26:15.473Z,139.50
2022-12-01T04:27:11.305Z,140.30
2022-12-01T04:28:09.267Z,138.20
2022-12-01T04:29:09.237Z,137.00
2022-12-01T04:30:09.233Z,138.20
2022-12-01T04:31:09.503Z,144.40
2022-12-01T04:32:09.237Z,134.20
2022-12-01T04:33:09.236Z,139.10
2022-12-01T04:34:09.217Z,131.80
2022-12-01T04:35:09.205Z,135.10
2022-12-01T04:36:09.226Z,137.00
2022-12-01T04:37:09.219Z,139.10
2022-12-01T04:38:09.243Z,141.20
2022-12-01T04:39:09.188Z,133.70
2022-12-01T04:40:09.176Z,142.40
2022-12-01T04:41:09.173Z,142.20
2022-12-01T04:42:09.168Z,133.40
2022-12-01T04:43:09.191Z,128.80
2022-12-01T04:44:09.135Z,136.10
2022-12-01T04:45:09.149Z,126.60
2022-12-01T04:46:09.168Z,131.20
2022-12-01T04:47:09.264Z,126.30
2022-12-01T04:48:09.160Z,127.70
2022-12-01T04:49:09.359Z,127.90
2022-12-01T04:50:09.097Z,128.20
2022-12-01T04:51:09.133Z,124.90
2022-12-01T04:52:09.127Z,127.80
2022-12-01T04:53:09.121Z,121.90
2022-12-01T04:54:09.125Z,126.60
2022-12-01T04:55:09.089Z,124.30
2022-12-01T04:56:09.100Z,128.60
2022-12-01T04:57:09.062Z,121.10
2022-12-01T04:58:09.074Z,117.60
2022-12-01T04:59:09.082Z,131.30
2022-12-01T05:00:09.085Z,126.30
2022-12-01T05:01:09.215Z,123.60
2022-12-01T05:02:09.112Z,119.10
2022-12-01T05:03:14.710Z,121.00
2022-12-01T05:04:11.028Z,125.60
2022-12-01T05:05:09.037Z,115.90
2022-12-01T05:06:09.005Z,114.50
2022-12-01T05:07:09.012Z,107.40
2022-12-01T05:08:09.204Z,111.10
2022-12-01T05:09:11.241Z,101.90
2022-12-01T05:10:10.006Z,104.70
2022-12-01T05:11:09.013Z,102.50
2022-12-01T05:12:08.983Z,102.30
2022-12-01T05:13:08.971Z,98.60
2022-12-01T05:14:08.952Z,99.30
2022-12-01T05:15:08.967Z,99.10
2022-12-01T05:16:09.068Z,101.80
2022-12-01T05:17:08.947Z,109.90
2022-12-01T05:18:09.080Z,99.40
2022-12-01T05:19:08.958Z,98.90
2022-12-01T05:20:08.926Z,101.80
2022-12-01T05:21:08.940Z,106.10
2022-12-01T05:22:08.922Z,105.40
2022-12-01T05:23:13.575Z,100.10
2022-12-01T05:24:10.923Z,102.70
2022-12-01T05:25:08.894Z,98.60
2022-12-01T05:26:08.966Z,108.60
2022-12-01T05:27:08.925Z,101.30
2022-12-01T05:28:08.882Z,101.30
2022-12-01T05:29:08.872Z,112.50
2022-12-01T05:30:08.876Z,110.90
2022-12-01T05:31:08.900Z,111.10
2022-12-01T05:32:09.002Z,112.30
2022-12-01T05:33:08.907Z,113.20
2022-12-01T05:34:08.837Z,115.90
2022-12-01T05:35:08.876Z,115.60
2022-12-01T05:36:08.848Z,117.90
2022-12-01T05:37:08.807Z,117.60
2022-12-01T05:38:08.885Z,124.50
2022-12-01T05:39:08.793Z,116.70
2022-12-01T05:40:08.826Z,116.70
2022-12-01T05:41:08.793Z,123.80
2022-12-01T05:42:08.789Z,119.10
2022-12-01T05:43:08.770Z,117.50
2022-12-01T05:44:08.784Z,121.80
2022-12-01T05:45:08.810Z,128.10
2022-12-01T05:46:08.805Z,122.20
2022-12-01T05:47:08.767Z,120.10
2022-12-01T05:48:08.750Z,116.10
2022-12-01T05:49:08.755Z,124.60
2022-12-01T05:50:08.764Z,119.30
2022-12-01T05:51:08.760Z,129.80
2022-12-01T05:52:08.723Z,129.80
2022-12-01T05:53:08.707Z,125.50
2022-12-01T05:54:08.731Z,130.70
2022-12-01T05:55:08.726Z,125.40
2022-12-01T05:56:08.705Z,126.20
2022-12-01T05:57:08.770Z,127.60
2022-12-01T05:58:08.689Z,122.70
2022-12-01T05:59:08.678Z,128.50
2022-12-01T06:00:08.770Z,127.50
2022-12-01T06:01:08.768Z,126.90
2022-12-01T06:02:08.748Z,125.60
2022-12-01T06:03:08.682Z,118.50
2022-12-01T06:04:08.677Z,123.60
2022-12-01T06:05:08.664Z,121.50
2022-12-01T06:06:08.639Z,116.00
2022-12-01T06:07:09.657Z,121.80
2022-12-01T06:08:08.613Z,134.10
2022-12-01T06:09:08.601Z,120.20
2022-12-01T06:10:08.640Z,109.00
2022-12-01T06:11:08.615Z,112.00
2022-12-01T06:12:08.637Z,110.30
2022-12-01T06:13:08.591Z,113.30
2022-12-01T06:14:08.602Z,113.50
2022-12-01T06:15:08.607Z,111.20
2022-12-01T06:16:08.574Z,113.50
2022-12-01T06:17:08.589Z,113.90
2022-12-01T06:18:08.580Z,116.90
2022-12-01T06:19:09.051Z,113.90
2022-12-01T06:20:08.676Z,110.00
2022-12-01T06:21:08.557Z,110.50
2022-12-01T06:22:08.529Z,107.80
2022-12-01T06:23:08.531Z,106.50
2022-12-01T06:24:08.549Z,107.60
2022-12-01T06:25:08.639Z,108.70
2022-12-01T06:26:08.540Z,105.80
2022-12-01T06:27:08.525Z,116.40
2022-12-01T06:28:08.509Z,109.60
2022-12-01T06:29:08.512Z,108.30
2022-12-01T06:30:08.526Z,113.60
2022-12-01T06:31:08.479Z,106.30
2022-12-01T06:32:08.601Z,106.10
2022-12-01T06:33:08.488Z,106.00
2022-12-01T06:34:08.452Z,111.50
2022-12-01T06:35:08.435Z,108.90
2022-12-01T06:36:08.479Z,115.30
2022-12-01T06:37:08.487Z,114.60
2022-12-01T06:38:08.467Z,102.40
2022-12-01T06:39:08.430Z,114.90
2022-12-01T06:40:08.407Z,106.70
2022-12-01T06:41:08.417Z,105.80
2022-12-01T06:42:08.439Z,104.00
2022-12-01T06:43:08.428Z,107.00
2022-12-01T06:44:08.414Z,108.20
2022-12-01T06:45:08.392Z,111.50
2022-12-01T06:46:08.468Z,110.70
2022-12-01T06:47:08.400Z,106.70
2022-12-01T06:48:08.371Z,100.90
2022-12-01T06:49:08.363Z,104.90
2022-12-01T06:50:08.352Z,99.00
2022-12-01T06:51:10.777Z,103.20
2022-12-01T06:52:08.371Z,107.20
2022-12-01T06:53:08.339Z,109.50
2022-12-01T06:54:08.382Z,104.50
2022-12-01T06:55:08.360Z,106.30
2022-12-01T06:56:08.334Z,98.20
2022-12-01T06:57:08.337Z,104.10
2022-12-01T06:58:08.344Z,101.20
2022-12-01T06:59:08.383Z,103.20
2022-12-01T07:00:08.327Z,104.70
2022-12-01T07:01:09.385Z,102.90
2022-12-01T07:02:08.354Z,100.90
2022-12-01T07:03:08.301Z,104.10
2022-12-01T07:04:08.321Z,99.20
2022-12-01T07:05:08.256Z,98.30
2022-12-01T07:06:08.353Z,103.10
2022-12-01T07:07:08.281Z,98.20
2022-12-01T07:08:08.350Z,95.50
2022-12-01T07:09:08.272Z,98.00
2022-12-01T07:10:08.323Z,102.20
2022-12-01T07:11:08.244Z,99.80
2022-12-01T07:12:08.224Z,101.60
2022-12-01T07:13:08.226Z,101.80
2022-12-01T07:14:08.213Z,97.90
2022-12-01T07:15:08.239Z,104.60
2022-12-01T07:16:08.244Z,96.10
2022-12-01T07:17:08.256Z,102.10
2022-12-01T07:18:08.167Z,103.40
2022-12-01T07:19:08.194Z,103.90
2022-12-01T07:20:08.183Z,102.10
2022-12-01T07:21:08.201Z,99.20
2022-12-01T07:22:08.169Z,95.60
2022-12-01T07:23:08.157Z,96.50
2022-12-01T07:24:08.141Z,94.80
2022-12-01T07:25:08.453Z,93.30
2022-12-01T07:26:08.199Z,93.60
2022-12-01T07:27:08.113Z,97.60
2022-12-01T07:28:08.143Z,94.20
2022-12-01T07:29:08.137Z,96.70
2022-12-01T07:30:08.126Z,95.30
2022-12-01T07:31:08.278Z,101.10
2022-12-01T07:32:08.121Z,91.60
2022-12-01T07:33:08.096Z,95.40
2022-12-01T07:34:08.264Z,96.60
2022-12-01T07:35:08.085Z,98.00
2022-12-01T07:36:08.086Z,98.00
2022-12-01T07:37:08.065Z,91.50
2022-12-01T07:38:08.064Z,98.20
2022-12-01T07:39:08.068Z,95.40
2022-12-01T07:40:08.044Z,101.30
2022-12-01T07:41:09.101Z,103.80
2022-12-01T07:42:08.039Z,94.10
2022-12-01T07:43:08.032Z,96.90
2022-12-01T07:44:08.030Z,106.10
2022-12-01T07:45:08.041Z,96.20
2022-12-01T07:46:08.113Z,102.30
2022-12-01T07:47:08.045Z,94.40
2022-12-01T07:48:07.992Z,96.80
2022-12-01T07:49:08.011Z,97.00
2022-12-01T07:50:08.003Z,95.40
2022-12-01T07:51:08.009Z,102.50
2022-12-01T07:52:07.999Z,101.50
2022-12-01T07:53:07.970Z,100.40
2022-12-01T07:54:07.975Z,102.50
2022-12-01T07:55:07.955Z,101.40
2022-12-01T07:56:08.961Z,97.40
2022-12-01T07:57:08.988Z,95.00
2022-12-01T07:58:07.929Z,94.80
2022-12-01T07:59:07.917Z,102.90
2022-12-01T08:00:07.984Z,90.70
2022-12-01T08:01:08.035Z,87.30
2022-12-01T08:02:07.974Z,86.20
2022-12-01T08:03:07.978Z,89.70
2022-12-01T08:04:07.916Z,87.30
2022-12-01T08:05:07.889Z,99.30
2022-12-01T08:06:07.880Z,90.30
2022-12-01T08:07:07.900Z,90.40
2022-12-01T08:08:07.975Z,90.90
2022-12-01T08:09:07.916Z,95.50
2022-12-01T08:10:07.891Z,88.10
2022-12-01T08:11:07.847Z,84.50
2022-12-01T08:12:08.840Z,89.40
2022-12-01T08:13:10.690Z,90.70
2022-12-01T08:14:08.837Z,85.50
2022-12-01T08:15:07.816Z,89.40
2022-12-01T08:16:07.899Z,87.50
2022-12-01T08:17:07.804Z,93.60
2022-12-01T08:18:07.899Z,84.60
2022-12-01T08:19:07.776Z,94.90
2022-12-01T08:20:07.804Z,82.60
2022-12-01T08:21:07.757Z,80.10
2022-12-01T08:22:07.796Z,79.60
2022-12-01T08:23:07.828Z,73.70
2022-12-01T08:24:07.816Z,70.40
2022-12-01T08:25:07.764Z,64.10
2022-12-01T08:26:07.774Z,64.50
2022-12-01T08:27:07.747Z,68.30
2022-12-01T08:28:07.777Z,70.00
2022-12-01T08:29:07.726Z,71.50
2022-12-01T08:30:07.731Z,69.30
2022-12-01T08:31:07.754Z,62.30
2022-12-01T08:32:07.717Z,68.60
2022-12-01T08:33:07.759Z,67.20
2022-12-01T08:34:07.690Z,59.90
2022-12-01T08:35:07.685Z,54.60
2022-12-01T08:36:07.701Z,57.20
2022-12-01T08:37:07.663Z,61.20
2022-12-01T08:38:07.679Z,58.70
2022-12-01T08:39:07.682Z,57.70
2022-12-01T08:40:07.647Z,61.10
2022-12-01T08:41:07.677Z,62.00
2022-12-01T08:42:07.639Z,63.70
2022-12-01T08:43:07.640Z,53.80
2022-12-01T08:44:07.664Z,49.80
2022-12-01T08:45:07.640Z,65.20
2022-12-01T08:46:07.673Z,62.40
2022-12-01T08:47:07.612Z,61.30
2022-12-01T08:48:07.602Z,57.60
2022-12-01T08:49:07.630Z,57.30
2022-12-01T08:50:07.650Z,48.10
2022-12-01T08:51:07.680Z,52.40
2022-12-01T08:52:07.575Z,54.00
2022-12-01T08:53:07.565Z,45.50
2022-12-01T08:54:07.560Z,56.10
2022-12-01T08:55:07.581Z,48.80
2022-12-01T08:56:07.552Z,46.70
2022-12-01T08:57:07.619Z,46.40
2022-12-01T08:58:07.544Z,51.00
2022-12-01T08:59:07.594Z,45.60
2022-12-01T09:00:07.574Z,49.40
2022-12-01T09:01:07.511Z,49.00
2022-12-01T09:02:07.617Z,44.30
2022-12-01T09:03:07.537Z,55.90
2022-12-01T09:04:07.554Z,50.80
2022-12-01T09:05:07.522Z,53.10
2022-12-01T09:06:07.508Z,55.60
2022-12-01T09:07:07.655Z,55.90
2022-12-01T09:08:07.534Z,48.50
2022-12-01T09:09:07.457Z,51.30
2022-12-01T09:10:07.494Z,54.20
2022-12-01T09:11:07.571Z,45.00
2022-12-01T09:12:07.444Z,47.30
2022-12-01T09:13:07.456Z,47.10
2022-12-01T09:14:07.464Z,39.10
2022-12-01T09:15:07.467Z,47.20
2022-12-01T09:16:07.466Z,41.60
2022-12-01T09:17:07.413Z,45.60
2022-12-01T09:18:07.438Z,45.10
2022-12-01T09:19:07.416Z,42.10
2022-12-01T09:20:07.425Z,38.40
2022-12-01T09:21:07.404Z,44.70
2022-12-01T09:22:07.428Z,43.20
2022-12-01T09:23:07.384Z,38.80
2022-12-01T09:24:07.378Z,42.80
2022-12-01T09:25:07.402Z,45.20
2022-12-01T09:26:12.128Z,45.80
2022-12-01T09:27:09.381Z,49.10
2022-12-01T09:28:07.358Z,50.00
2022-12-01T09:29:07.343Z,44.90
2022-12-01T09:30:07.485Z,44.70
2022-12-01T09:31:07.341Z,43.00
2022-12-01T09:32:07.328Z,47.30
2022-12-01T09:33:07.303Z,39.20
2022-12-01T09:34:07.294Z,50.40
2022-12-01T09:35:07.435Z,56.80
2022-12-01T09:36:07.283Z,44.30
2022-12-01T09:37:07.291Z,42.70
2022-12-01T09:38:07.294Z,51.10
2022-12-01T09:39:07.271Z,42.20
2022-12-01T09:40:07.281Z,38.70
2022-12-01T09:41:07.268Z,34.60
2022-12-01T09:42:09.211Z,38.10
2022-12-01T09:43:08.270Z,36.10
2022-12-01T09:44:07.310Z,36.50
2022-12-01T09:45:07.240Z,39.50
2022-12-01T09:46:07.256Z,34.70
2022-12-01T09:47:07.259Z,31.30
2022-12-01T09:48:07.237Z,43.40
2022-12-01T09:49:07.301Z,34.00
2022-12-01T09:50:07.200Z,41.50
2022-12-01T09:51:07.226Z,44.90
2022-12-01T09:52:07.179Z,41.60
2022-12-01T09:53:07.213Z,47.20
2022-12-01T09:54:07.415Z,63.30
2022-12-01T09:55:07.170Z,56.30
2022-12-01T09:56:12.738Z,49.60
2022-12-01T09:57:09.170Z,45.40
2022-12-01T09:58:08.155Z,45.70
2022-12-01T09:59:07.158Z,55.20
2022-12-01T10:00:07.167Z,59.80
2022-12-01T10:01:07.239Z,47.00
2022-12-01T10:02:07.133Z,44.40
2022-12-01T10:03:07.125Z,43.70
2022-12-01T10:04:07.104Z,47.70
2022-12-01T10:05:07.151Z,45.50
2022-12-01T10:07:09.208Z,48.80
2022-12-01T10:08:07.211Z,45.00
2022-12-01T10:09:07.235Z,51.50
2022-12-01T10:10:07.066Z,55.10
2022-12-01T10:11:07.115Z,51.30
2022-12-01T10:12:07.052Z,47.30
2022-12-01T10:13:07.053Z,48.00
2022-12-01T10:14:07.094Z,49.50
2022-12-01T10:15:07.060Z,52.20
2022-12-01T10:16:07.092Z,50.90
2022-12-01T10:17:07.044Z,50.50
2022-12-01T10:18:07.002Z,48.90
2022-12-01T10:19:07.271Z,53.10
2022-12-01T10:20:06.995Z,55.60
2022-12-01T10:21:06.999Z,57.10
2022-12-01T10:22:07.019Z,53.10
2022-12-01T10:23:06.970Z,55.60
2022-12-01T10:24:07.049Z,50.10
2022-12-01T10:25:07.016Z,54.20
2022-12-01T10:26:06.949Z,53.10
2022-12-01T10:27:06.988Z,58.40
2022-12-01T10:28:06.962Z,53.70
2022-12-01T10:29:06.974Z,56.50
2022-12-01T10:30:06.949Z,55.10
2022-12-01T10:31:07.031Z,57.90
2022-12-01T10:32:06.946Z,55.80
2022-12-01T10:33:06.921Z,48.90
2022-12-01T10:34:06.893Z,52.80
2022-12-01T10:35:06.953Z,37.90
2022-12-01T10:36:06.933Z,50.10
2022-12-01T10:37:06.903Z,49.60
2022-12-01T10:38:06.942Z,66.40
2022-12-01T10:39:07.883Z,59.50
2022-12-01T10:40:06.880Z,46.00
2022-12-01T10:41:06.890Z,45.80
2022-12-01T10:42:06.868Z,51.10
2022-12-01T10:43:06.841Z,49.00
2022-12-01T10:44:06.850Z,41.80
2022-12-01T10:45:06.892Z,39.20
2022-12-01T10:46:06.879Z,29.30
2022-12-01T10:47:06.838Z,34.20
2022-12-01T10:48:06.821Z,29.30
2022-12-01T10:49:06.808Z,32.70
2022-12-01T10:50:06.792Z,39.60
2022-12-01T10:51:06.803Z,44.30
2022-12-01T10:52:06.814Z,35.60
2022-12-01T10:53:06.760Z,41.80
2022-12-01T10:54:06.807Z,32.50
2022-12-01T10:55:06.753Z,28.80
2022-12-01T10:56:06.762Z,37.70
2022-12-01T10:57:06.777Z,37.10
2022-12-01T10:58:09.465Z,23.50
2022-12-01T10:59:07.762Z,29.50
2022-12-01T11:00:06.787Z,25.20
2022-12-01T11:01:06.862Z,30.80
2022-12-01T11:02:06.830Z,23.90
2022-12-01T11:03:07.001Z,24.40
2022-12-01T11:04:06.721Z,28.20
2022-12-01T11:05:06.730Z,28.90
2022-12-01T11:06:06.760Z,26.20
2022-12-01T11:07:06.698Z,27.50
2022-12-01T11:08:07.085Z,34.40
2022-12-01T11:09:06.685Z,32.40
2022-12-01T11:10:06.689Z,32.40
2022-12-01T11:11:06.667Z,28.50
2022-12-01T11:12:06.694Z,27.50
2022-12-01T11:13:06.681Z,30.20
2022-12-01T11:14:06.692Z,33.30
2022-12-01T11:15:06.681Z,31.90
2022-12-01T11:16:06.695Z,34.30
2022-12-01T11:17:06.737Z,39.50
2022-12-01T11:18:06.611Z,31.80
2022-12-01T11:19:06.667Z,31.40
2022-12-01T11:20:06.715Z,37.30
2022-12-01T11:21:06.631Z,36.70
2022-12-01T11:22:06.726Z,34.10
2022-12-01T11:23:06.708Z,36.90
2022-12-01T11:24:06.595Z,26.10
2022-12-01T11:25:06.595Z,36.80
2022-12-01T11:26:06.587Z,28.50
2022-12-01T11:27:06.594Z,32.40
2022-12-01T11:28:06.577Z,31.20
2022-12-01T11:29:06.567Z,29.20
2022-12-01T11:30:06.588Z,33.10
2022-12-01T11:31:06.555Z,33.70
2022-12-01T11:32:06.576Z,36.60
2022-12-01T11:33:06.543Z,37.60
2022-12-01T11:34:06.639Z,35.10
2022-12-01T11:35:06.546Z,44.80
2022-12-01T11:36:06.706Z,41.90
2022-12-01T11:37:06.584Z,51.10
2022-12-01T11:38:29.267Z,42.10
2022-12-01T11:39:08.495Z,38.00
2022-12-01T11:40:06.469Z,37.50
2022-12-01T11:41:06.530Z,45.40
2022-12-01T11:42:06.529Z,43.00
2022-12-01T11:43:06.461Z,51.70
2022-12-01T11:44:22.497Z,42.90
2022-12-01T11:45:08.436Z,49.40
2022-12-01T11:46:06.603Z,46.70
2022-12-01T11:47:22.137Z,46.30
2022-12-01T11:48:08.423Z,52.20
2022-12-01T11:49:06.419Z,52.40
2022-12-01T11:50:06.429Z,45.80
2022-12-01T11:51:06.498Z,48.30
2022-12-01T11:52:06.449Z,41.40
2022-12-01T11:53:06.408Z,47.50
2022-12-01T11:54:06.403Z,50.80
2022-12-01T11:55:10.147Z,50.00
2022-12-01T11:56:07.382Z,53.80
2022-12-01T11:58:08.403Z,47.30
2022-12-01T11:58:12.587Z,49.30
2022-12-01T11:59:06.395Z,46.40
2022-12-01T12:00:06.353Z,48.70
2022-12-01T12:01:06.577Z,43.80
2022-12-01T12:02:06.481Z,60.40
2022-12-01T12:03:06.432Z,58.70
2022-12-01T12:04:06.356Z,52.70
2022-12-01T12:05:06.396Z,50.60
2022-12-01T12:06:32.264Z,54.10
2022-12-01T12:07:08.341Z,53.90
2022-12-01T12:08:06.388Z,56.30
2022-12-01T12:09:06.384Z,49.40
2022-12-01T12:10:06.300Z,46.00
2022-12-01T12:11:06.367Z,44.70
2022-12-01T12:12:06.307Z,57.40
2022-12-01T12:13:06.266Z,52.80
2022-12-01T12:14:06.263Z,52.70
2022-12-01T12:15:06.301Z,58.40
2022-12-01T12:16:06.260Z,48.30
2022-12-01T12:17:06.350Z,45.30
2022-12-01T12:18:06.301Z,45.90
2022-12-01T12:19:06.235Z,42.20
2022-12-01T12:20:08.206Z,50.70
2022-12-01T12:21:07.255Z,53.00
2022-12-01T12:22:06.226Z,41.80
2022-12-01T12:23:06.222Z,47.40
2022-12-01T12:24:06.301Z,51.60
2022-12-01T12:25:06.264Z,49.10
2022-12-01T12:26:06.216Z,50.80
2022-12-01T12:27:06.186Z,50.50
2022-12-01T12:28:06.233Z,51.10
2022-12-01T12:29:09.432Z,47.90
2022-12-01T12:30:08.300Z,53.20
2022-12-01T12:31:06.223Z,50.20
2022-12-01T12:32:06.168Z,53.70
2022-12-01T12:33:07.166Z,56.20
2022-12-01T12:34:06.134Z,57.00
2022-12-01T12:35:06.166Z,57.80
2022-12-01T12:36:06.483Z,53.90
2022-12-01T12:37:06.343Z,56.70
2022-12-01T12:38:06.108Z,58.50
2022-12-01T12:39:06.112Z,60.10